createdAt,value
2023-04-01T00:04:28.862Z,101845.50
2023-04-01T00:09:31.363Z,101851.75
2023-04-01T00:14:33.378Z,101851.84
2023-04-01T00:19:35.563Z,101834.97
2023-04-01T00:24:37.763Z,101832.25
2023-04-01T00:29:43.767Z,101818.19
2023-04-01T00:34:46.574Z,101809.38
2023-04-01T00:39:48.838Z,101809.38
2023-04-01T00:44:53.978Z,101812.03
2023-04-01T00:49:56.367Z,101810.38
2023-04-01T00:55:02.331Z,101835.06
2023-04-01T01:00:10.602Z,101828.09
2023-04-01T01:05:16.268Z,101825.31
2023-04-01T01:10:19.604Z,101826.16
2023-04-01T01:15:25.133Z,101817.34
2023-04-01T01:20:38.388Z,101805.16
2023-04-01T01:26:00.685Z,101821.91
2023-04-01T01:31:12.953Z,101819.28
2023-04-01T01:36:16.673Z,101811.19
2023-04-01T01:41:19.663Z,101806.72
2023-04-01T01:46:26.117Z,101828.16
2023-04-01T01:51:29.293Z,101835.28
2023-04-01T01:56:33.970Z,101833.41
2023-04-01T02:01:41.925Z,101828.16
2023-04-01T02:06:55.000Z,101813.97
2023-04-01T02:12:09.590Z,101809.50
2023-04-01T02:17:21.673Z,101821.91
2023-04-01T02:22:29.075Z,101829.97
2023-04-01T02:27:32.218Z,101825.53
2023-04-01T02:32:38.993Z,101826.38
2023-04-01T02:37:43.549Z,101824.56
2023-04-01T02:42:46.043Z,101818.41
2023-04-01T02:47:48.064Z,101817.66
2023-04-01T02:52:50.130Z,101823.72
2023-04-01T02:57:52.193Z,101829.13
2023-04-01T03:02:54.811Z,101822.94
2023-04-01T03:07:57.183Z,101822.00
2023-04-01T03:12:59.208Z,101814.03
2023-04-01T03:18:01.792Z,101827.31
2023-04-01T03:23:04.096Z,101830.06
2023-04-01T03:28:06.090Z,101823.97
2023-04-01T03:33:08.111Z,101818.50
2023-04-01T03:38:10.108Z,101823.91
2023-04-01T03:43:12.503Z,101823.91
2023-04-01T03:48:18.235Z,101820.28
2023-04-01T03:53:20.891Z,101802.75
2023-04-01T03:58:23.572Z,101797.44
2023-04-01T04:03:27.470Z,101796.41
2023-04-01T04:08:29.707Z,101798.22
2023-04-01T04:13:31.968Z,101780.97
2023-04-01T04:18:37.610Z,101797.44
2023-04-01T04:23:39.863Z,101798.28
2023-04-01T04:28:42.292Z,101795.56
2023-04-01T04:33:44.652Z,101794.69
2023-04-01T04:38:47.908Z,101802.66
2023-04-01T04:43:52.783Z,101808.19
2023-04-01T04:48:54.901Z,101807.22
2023-04-01T04:53:57.724Z,101819.44
2023-04-01T04:59:11.494Z,101844.38
2023-04-01T05:04:20.537Z,101839.16
2023-04-01T05:09:23.034Z,101839.09
2023-04-01T05:14:25.124Z,101841.75
2023-04-01T05:19:34.789Z,101847.03
2023-04-01T05:24:37.076Z,101855.09
2023-04-01T05:29:39.213Z,101875.53
2023-04-01T05:34:44.086Z,101878.13
2023-04-01T05:39:46.264Z,101888.53
2023-04-01T05:44:48.445Z,101899.25
2023-04-01T05:50:16.886Z,101895.84
2023-04-01T05:55:19.116Z,101890.44
2023-04-01T06:00:22.291Z,101890.44
2023-04-01T06:05:28.131Z,101902.84
2023-04-01T06:10:58.531Z,101902.16
2023-04-01T06:16:30.627Z,101911.94
2023-04-01T06:21:57.206Z,101913.75
2023-04-01T06:27:27.424Z,101913.63
2023-04-01T06:32:53.263Z,101908.34
2023-04-01T06:38:17.143Z,101919.81
2023-04-01T06:43:25.224Z,101934.13
2023-04-01T06:49:17.978Z,101936.88
2023-04-01T06:54:22.891Z,101931.34
2023-04-01T06:59:56.673Z,101952.72
2023-04-01T07:05:00.837Z,101946.44
2023-04-01T07:10:32.353Z,101957.16
2023-04-01T07:16:06.343Z,101971.16
2023-04-01T07:21:26.619Z,101958.00
2023-04-01T07:26:30.936Z,101936.28
2023-04-01T07:31:57.471Z,101945.69
2023-04-01T07:37:11.563Z,101949.09
2023-04-01T07:42:45.273Z,101956.31
2023-04-01T07:48:21.141Z,101969.56
2023-04-01T07:53:39.442Z,101957.16
2023-04-01T07:59:11.932Z,101944.81
2023-04-01T08:05:11.476Z,101954.59
2023-04-01T08:10:54.744Z,101958.09
2023-04-01T08:16:27.721Z,101973.16
2023-04-01T08:21:48.761Z,101980.19
2023-04-01T08:26:56.410Z,101977.53
2023-04-01T08:32:10.294Z,101996.09
2023-04-01T08:37:25.453Z,102004.91
2023-04-01T08:42:59.731Z,102024.44
2023-04-01T08:48:26.537Z,102013.81
2023-04-01T08:54:01.098Z,102012.09
2023-04-01T08:59:38.641Z,102008.59
2023-04-01T09:05:31.368Z,102020.06
2023-04-01T09:10:39.642Z,102022.63
2023-04-01T09:16:39.267Z,102014.75
2023-04-01T09:22:00.423Z,102026.22
2023-04-01T09:27:10.908Z,102024.34
2023-04-01T09:32:46.215Z,102026.16
2023-04-01T09:37:55.933Z,102022.63
2023-04-01T09:43:06.383Z,102018.19
2023-04-01T09:48:40.698Z,102026.16
2023-04-01T09:54:21.642Z,102041.22
2023-04-01T09:59:58.270Z,102020.00
2023-04-01T10:06:16.151Z,102011.16
2023-04-01T10:11:37.044Z,102011.09
2023-04-01T10:16:57.669Z,102009.44
2023-04-01T10:22:11.740Z,102012.88
2023-04-01T10:27:30.654Z,102011.16
2023-04-01T10:33:16.550Z,102011.09
2023-04-01T10:38:49.556Z,102005.88
2023-04-01T10:44:33.297Z,101992.59
2023-04-01T10:49:52.760Z,101971.38
2023-04-01T10:55:13.648Z,101963.50
2023-04-01T11:00:51.128Z,101954.50
2023-04-01T11:06:32.537Z,101960.75
2023-04-01T11:11:53.325Z,101954.50
2023-04-01T11:17:01.935Z,101933.28
2023-04-01T11:22:30.506Z,101935.06
2023-04-01T11:27:54.093Z,101937.63
2023-04-01T11:33:02.610Z,101916.41
2023-04-01T11:38:27.746Z,101914.69
2023-04-01T11:44:11.209Z,101906.63
2023-04-01T11:49:36.603Z,101903.03
2023-04-01T11:55:26.919Z,101890.69
2023-04-01T12:00:57.009Z,101882.75
2023-04-01T12:06:27.368Z,101872.91
2023-04-01T12:11:55.886Z,101872.03
2023-04-01T12:17:22.236Z,101860.56
2023-04-01T12:22:45.846Z,101868.53
2023-04-01T12:28:03.020Z,101865.78
2023-04-01T12:33:20.701Z,101866.72
2023-04-01T12:38:30.599Z,101867.50
2023-04-01T12:43:54.279Z,101857.84
2023-04-01T12:49:19.389Z,101837.53
2023-04-01T12:54:27.489Z,101827.69
2023-04-01T12:59:44.578Z,101809.13
2023-04-01T13:05:24.078Z,101813.56
2023-04-01T13:10:51.649Z,101821.44
2023-04-01T13:16:03.221Z,101817.84
2023-04-01T13:21:52.734Z,101813.56
2023-04-01T13:27:15.891Z,101809.03
2023-04-01T13:32:43.628Z,101790.53
2023-04-01T13:37:59.438Z,101791.31
2023-04-01T13:43:04.430Z,101786.00
2023-04-01T13:48:19.991Z,101793.00
2023-04-01T13:53:48.509Z,101785.03
2023-04-01T13:59:11.975Z,101771.88
2023-04-01T14:04:50.800Z,101776.22
2023-04-01T14:09:58.552Z,101788.66
2023-04-01T14:15:20.744Z,101794.78
2023-04-01T14:20:39.277Z,101776.13
2023-04-01T14:25:56.423Z,101760.19
2023-04-01T14:31:32.184Z,101748.72
2023-04-01T14:36:47.576Z,101745.34
2023-04-01T14:41:53.532Z,101725.63
2023-04-01T14:47:23.664Z,101717.75
2023-04-01T14:52:31.877Z,101700.88
2023-04-01T14:57:36.100Z,101696.50
2023-04-01T15:03:00.218Z,101667.31
2023-04-01T15:08:24.570Z,101663.94
2023-04-01T15:13:45.918Z,101660.31
2023-04-01T15:19:00.006Z,101652.16
2023-04-01T15:24:05.153Z,101650.34
2023-04-01T15:29:16.211Z,101648.66
2023-04-01T15:34:45.560Z,101636.13
2023-04-01T15:40:12.478Z,101637.09
2023-04-01T15:45:44.010Z,101634.44
2023-04-01T15:51:04.341Z,101620.31
2023-04-01T15:56:27.701Z,101613.19
2023-04-01T16:01:48.448Z,101599.00
2023-04-01T16:07:12.044Z,101582.13
2023-04-01T16:12:41.765Z,101582.22
2023-04-01T16:18:05.938Z,101572.44
2023-04-01T16:23:43.708Z,101557.38
2023-04-01T16:29:05.101Z,101553.88
2023-04-01T16:34:18.675Z,101549.19
2023-04-01T16:39:42.134Z,101543.13
2023-04-01T16:45:16.589Z,101539.53
2023-04-01T16:50:30.886Z,101543.03
2023-04-01T16:56:06.561Z,101533.28
2023-04-01T17:01:21.599Z,101546.53
2023-04-01T17:06:46.125Z,101557.16
2023-04-01T17:12:03.480Z,101541.22
2023-04-01T17:17:37.931Z,101527.97
2023-04-01T17:23:01.137Z,101528.81
2023-04-01T17:28:18.062Z,101530.44
2023-04-01T17:33:47.725Z,101526.91
2023-04-01T17:39:06.035Z,101520.66
2023-04-01T17:44:29.532Z,101524.28
2023-04-01T17:49:54.064Z,101520.75
2023-04-01T17:55:29.464Z,101516.31
2023-04-01T18:00:54.020Z,101521.38
2023-04-01T18:06:06.389Z,101505.47
2023-04-01T18:11:28.851Z,101506.31
2023-04-01T18:16:52.925Z,101504.63
2023-04-01T18:21:59.779Z,101508.97
2023-04-01T18:27:10.707Z,101506.41
2023-04-01T18:32:49.510Z,101502.81
2023-04-01T18:38:07.500Z,101521.50
2023-04-01T18:43:28.273Z,101520.66
2023-04-01T18:49:07.792Z,101531.28
2023-04-01T18:54:24.348Z,101538.25
2023-04-01T18:59:40.778Z,101532.97
2023-04-01T19:05:17.789Z,101521.63
2023-04-01T19:11:11.724Z,101510.88
2023-04-01T19:16:34.904Z,101510.06
2023-04-01T19:21:55.458Z,101502.09
2023-04-01T19:27:04.906Z,101487.75
2023-04-01T19:32:41.885Z,101486.16
2023-04-01T19:38:04.372Z,101486.25
2023-04-01T19:43:35.432Z,101509.19
2023-04-01T19:48:40.322Z,101518.00
2023-04-01T19:53:53.324Z,101501.22
2023-04-01T19:59:12.120Z,101517.16
2023-04-01T20:04:37.990Z,101515.34
2023-04-01T20:09:47.899Z,101508.34
2023-04-01T20:14:57.522Z,101503.13
2023-04-01T20:20:14.653Z,101500.47
2023-04-01T20:25:22.148Z,101510.16
2023-04-01T20:30:46.065Z,101502.19
2023-04-01T20:36:13.064Z,101484.56
2023-04-01T20:41:20.896Z,101459.72
2023-04-01T20:46:23.212Z,101449.09
2023-04-01T20:51:31.839Z,101437.63
2023-04-01T20:56:49.995Z,101410.25
2023-04-01T21:02:03.243Z,101396.13
2023-04-01T21:07:36.041Z,101403.13
2023-04-01T21:13:02.571Z,101420.84
2023-04-01T21:18:23.244Z,101430.63
2023-04-01T21:23:41.288Z,101428.81
2023-04-01T21:29:34.830Z,101546.44
2023-04-01T21:34:55.063Z,101577.13
2023-04-01T21:40:15.456Z,101648.06
2023-04-01T21:45:49.605Z,101593.38
2023-04-01T21:51:16.519Z,101589.09
2023-04-01T21:56:18.541Z,101627.13
2023-04-01T22:02:02.350Z,101674.78
2023-04-01T22:07:19.058Z,101743.72
2023-04-01T22:12:27.832Z,101744.66
2023-04-01T22:17:47.530Z,101741.91
2023-04-01T22:23:26.532Z,101715.75
2023-04-01T22:28:34.289Z,101708.66
2023-04-01T22:34:02.663Z,101738.03
2023-04-01T22:39:26.457Z,101749.78
2023-04-01T22:44:37.692Z,101722.41
2023-04-01T22:49:43.467Z,101759.66
2023-04-01T22:54:55.055Z,101780.88
2023-04-01T23:00:09.391Z,101742.97
2023-04-01T23:05:16.996Z,101632.38
2023-04-01T23:10:31.234Z,101646.69
2023-04-01T23:15:35.510Z,101665.91
2023-04-01T23:20:59.828Z,101651.88
2023-04-01T23:26:37.160Z,101690.00
2023-04-01T23:31:41.806Z,101669.72
2023-04-01T23:36:56.687Z,101637.97
2023-04-01T23:42:23.263Z,101660.16
2023-04-01T23:47:31.190Z,101630.09
2023-04-01T23:52:41.326Z,101651.34
2023-04-01T23:57:43.407Z,101654.94
